Time;durP1;ratioP1;P1;durP2;ratioP2;P2;SDS_P1;SDS_P2;PMS_P1;PMS_P2;Temp;Humidity;BMP_temperature;BMP_pressure;BME280_temperature;BME280_humidity;BME280_pressure;Samples;Min_cycle;Max_cycle;Signal;HPM_P1;HPM_P2
2022/07/31 00:01:09;;;;;;;17.35;11.80;;;;;;;20.56;100.00;96777.66;5087828;28;20056;-63
2022/07/31 00:03:36;;;;;;;18.42;12.15;;;;;;;20.17;100.00;96696.31;5086447;28;20056;-60
2022/07/31 00:06:03;;;;;;;15.82;11.55;;;;;;;20.61;100.00;96740.53;5086562;28;20154;-61
2022/07/31 00:08:30;;;;;;;14.40;10.80;;;;;;;20.81;100.00;96758.88;5087608;28;20048;-62
2022/07/31 00:10:57;;;;;;;14.63;10.95;;;;;;;20.83;100.00;96755.63;5086276;28;20155;-63
2022/07/31 00:13:24;;;;;;;17.63;12.27;;;;;;;20.76;100.00;96716.38;5086285;28;20573;-61
2022/07/31 00:16:10;;;;;;;14.23;10.88;;;;;;;20.79;100.00;96707.84;5087279;28;20056;-62
2022/07/31 00:18:37;;;;;;;16.92;12.05;;;;;;;21.00;100.00;96714.91;5087823;28;20422;-63
2022/07/31 00:21:05;;;;;;;18.15;12.40;;;;;;;20.77;100.00;96672.94;5087343;28;20051;-61
2022/07/31 00:23:31;;;;;;;14.80;11.25;;;;;;;21.15;100.00;96710.44;5087428;28;20064;-61
2022/07/31 00:25:58;;;;;;;11.07;8.98;;;;;;;21.09;100.00;96689.69;5087342;28;20082;-63
2022/07/31 00:28:25;;;;;;;13.13;9.80;;;;;;;21.31;100.00;96712.41;5085794;28;20052;-60
2022/07/31 00:30:52;;;;;;;14.90;10.52;;;;;;;21.32;100.00;96697.88;5087257;28;20059;-63
2022/07/31 00:33:18;;;;;;;13.23;9.93;;;;;;;21.29;100.00;96698.75;5085699;28;20533;-62
2022/07/31 00:35:45;;;;;;;11.88;9.55;;;;;;;21.32;100.00;96686.59;5087296;28;20048;-60
2022/07/31 00:38:12;;;;;;;13.60;9.43;;;;;;;21.48;100.00;96678.00;5086198;28;20418;-61
2022/07/31 00:40:55;;;;;;;10.10;9.10;;;;;;;21.19;100.00;96654.78;5087325;28;20079;-63
2022/07/31 00:43:21;;;;;;;12.50;8.57;;;;;;;21.58;100.00;96664.81;5087093;28;20056;-63
2022/07/31 00:45:53;;;;;;;10.88;8.88;;;;;;;21.59;100.00;96655.91;5084802;28;20424;-63
2022/07/31 00:48:25;;;;;;;11.70;8.75;;;;;;;21.58;100.00;96653.53;5085730;28;20126;-62
2022/07/31 00:50:53;;;;;;;10.65;8.88;;;;;;;21.36;100.00;96619.63;5085758;28;20121;-62
2022/07/31 00:53:20;;;;;;;9.27;8.18;;;;;;;21.70;100.00;96670.47;5085382;28;20120;-64
2022/07/31 00:55:47;;;;;;;9.85;8.85;;;;;;;21.73;100.00;96683.66;5087044;28;20048;-61
2022/07/31 00:58:18;;;;;;;11.45;8.73;;;;;;;21.82;100.00;96669.69;5086775;28;20052;-62
2022/07/31 01:00:46;;;;;;;9.40;7.88;;;;;;;21.56;100.00;96616.59;5086983;28;20106;-62
2022/07/31 01:03:13;;;;;;;10.20;8.50;;;;;;;21.84;100.00;96658.75;5074182;28;20145;-63
2022/07/31 01:05:40;;;;;;;9.82;8.85;;;;;;;21.72;100.00;96653.88;5086424;28;20048;-62
2022/07/31 01:08:07;;;;;;;11.48;9.23;;;;;;;21.47;100.00;96608.00;5085091;28;20063;-63
2022/07/31 01:10:56;;;;;;;10.43;8.80;;;;;;;21.85;100.00;96662.34;5086734;28;20537;-62
2022/07/31 01:13:34;;;;;;;9.25;8.35;;;;;;;21.56;100.00;96617.34;5086786;28;20062;-60
2022/07/31 01:16:03;;;;;;;10.43;8.98;;;;;;;21.70;100.00;96647.91;5086185;28;20593;-60
2022/07/31 01:18:33;;;;;;;9.30;8.05;;;;;;;21.41;100.00;96602.16;5085755;28;20526;-62
2022/07/31 01:21:06;;;;;;;11.20;10.00;;;;;;;21.72;100.00;96636.19;5086235;28;20079;-64
2022/07/31 01:24:08;;;;;;;13.30;9.18;;;;;;;21.72;100.00;96630.56;5086255;28;20059;-61
2022/07/31 01:26:49;;;;;;;12.35;11.02;;;;;;;21.69;100.00;96629.41;5080931;28;20540;-62
2022/07/31 01:29:28;;;;;;;11.70;10.50;;;;;;;21.71;100.00;96628.94;5084800;28;20135;-61
2022/07/31 01:32:12;;;;;;;12.20;10.63;;;;;;;21.59;100.00;96627.72;5085750;28;20067;-63
2022/07/31 01:34:45;;;;;;;13.15;11.05;;;;;;;21.65;100.00;96634.38;5086155;28;20051;-62
2022/07/31 01:37:21;;;;;;;;;;;;;;;21.66;100.00;96627.50;5086644;28;20438;-63
2022/07/31 01:40:02;;;;;;;11.93;10.73;;;;;;;21.77;100.00;96627.97;5086220;28;19927;-64
2022/07/31 01:42:30;;;;;;;10.40;9.30;;;;;;;21.78;100.00;96632.34;5085734;28;20106;-64
2022/07/31 01:45:00;;;;;;;10.25;9.20;;;;;;;21.85;100.00;96645.44;5084343;28;20163;-62
2022/07/31 01:47:29;;;;;;;12.38;9.60;;;;;;;21.73;100.00;96630.09;5083877;28;20106;-65
2022/07/31 01:49:57;;;;;;;10.15;9.15;;;;;;;21.55;100.00;96593.22;5084979;28;20051;-63
2022/07/31 01:52:27;;;;;;;11.60;8.95;;;;;;;21.74;100.00;96636.50;5085550;28;20056;-61
2022/07/31 01:54:55;;;;;;;10.82;9.43;;;;;;;21.71;100.00;96629.75;5084269;28;20052;-64
2022/07/31 01:57:25;;;;;;;10.63;9.13;;;;;;;21.66;100.00;96635.97;5084150;28;20079;-61
2022/07/31 01:59:59;;;;;;;11.75;10.50;;;;;;;21.50;100.00;96607.88;5085388;28;20055;-62
2022/07/31 02:02:29;;;;;;;13.40;10.60;;;;;;;21.51;100.00;96623.56;5085492;28;20113;-63
2022/07/31 02:04:57;;;;;;;13.32;11.20;;;;;;;21.38;100.00;96580.53;5085693;28;20075;-62
2022/07/31 02:07:25;;;;;;;12.57;11.15;;;;;;;21.55;100.00;96586.78;5085387;28;20060;-63
2022/07/31 02:09:53;;;;;;;12.20;10.32;;;;;;;21.76;100.00;96603.84;5085497;28;20122;-63
2022/07/31 02:12:26;;;;;;;13.52;10.10;;;;;;;22.00;100.00;96607.81;5085553;28;20083;-62
2022/07/31 02:15:02;;;;;;;12.48;10.40;;;;;;;21.90;100.00;96597.72;5086096;28;20125;-63
2022/07/31 02:17:30;;;;;;;14.07;10.63;;;;;;;21.49;100.00;96578.13;5083653;28;20503;-63
2022/07/31 02:19:59;;;;;;;13.45;11.57;;;;;;;21.57;100.00;96624.59;5084935;28;20055;-63
2022/07/31 02:22:28;;;;;;;13.15;10.30;;;;;;;21.30;100.00;96601.72;5083759;28;20374;-63
2022/07/31 02:24:55;;;;;;;14.65;11.00;;;;;;;21.36;100.00;96614.00;5083837;28;20109;-63
2022/07/31 02:27:23;;;;;;;11.48;10.27;;;;;;;21.31;100.00;96619.41;5084500;28;20052;-63
2022/07/31 02:30:11;;;;;;;13.65;10.63;;;;;;;21.20;100.00;96631.00;5085045;28;20129;-61
2022/07/31 02:32:40;;;;;;;11.55;10.45;;;;;;;21.16;100.00;96624.69;5083237;28;20121;-61
2022/07/31 02:35:08;;;;;;;12.65;10.13;;;;;;;20.73;100.00;96562.44;5085227;28;20422;-60
2022/07/31 02:37:36;;;;;;;11.95;10.55;;;;;;;21.15;100.00;96614.66;5085138;28;20454;-60
2022/07/31 02:40:04;;;;;;;12.32;11.07;;;;;;;21.13;100.00;96614.34;5085134;28;20048;-61
2022/07/31 02:42:31;;;;;;;11.40;10.23;;;;;;;20.99;100.00;96595.06;5084578;28;20054;-62
2022/07/31 02:45:00;;;;;;;11.27;10.18;;;;;;;21.19;100.00;96623.81;5083553;28;20056;-64
2022/07/31 02:47:30;;;;;;;11.27;10.18;;;;;;;21.25;100.00;96632.47;5084241;28;20052;-63
2022/07/31 02:49:57;;;;;;;11.25;9.95;;;;;;;20.83;100.00;96592.31;5084755;28;20052;-63
2022/07/31 02:52:25;;;;;;;12.60;11.30;;;;;;;21.10;100.00;96643.41;5084959;28;20044;-62
2022/07/31 02:54:52;;;;;;;13.02;11.30;;;;;;;21.09;100.00;96650.25;5085006;28;20093;-61
2022/07/31 02:57:19;;;;;;;12.25;10.65;;;;;;;21.11;100.00;96647.00;5085015;28;20048;-62
2022/07/31 02:59:46;;;;;;;13.35;11.52;;;;;;;21.12;100.00;96638.09;5084931;28;20055;-60
2022/07/31 03:02:13;;;;;;;12.77;11.48;;;;;;;21.14;100.00;96635.63;5087502;28;20059;-63
2022/07/31 03:04:40;;;;;;;13.70;11.52;;;;;;;21.03;100.00;96618.25;5087469;28;20109;-62
2022/07/31 03:07:07;;;;;;;12.35;11.05;;;;;;;20.98;100.00;96604.72;5088406;27;20135;-62
2022/07/31 03:09:33;;;;;;;12.80;11.38;;;;;;;21.27;100.00;96639.25;5096269;27;20056;-62
2022/07/31 03:12:00;;;;;;;14.05;11.20;;;;;;;21.09;100.00;96604.44;5088579;28;20056;-62
2022/07/31 03:14:33;;;;;;;15.27;12.77;;;;;;;21.31;100.00;96634.28;5089050;28;20127;-63
2022/07/31 03:17:01;;;;;;;12.07;10.88;;;;;;;21.33;100.00;96637.44;5088426;28;20443;-64
2022/07/31 03:19:29;;;;;;;15.30;11.50;;;;;;;21.19;100.00;96649.16;5088680;28;20048;-61
2022/07/31 03:21:58;;;;;;;12.07;10.77;;;;;;;20.92;100.00;96629.84;5088605;28;20052;-60
2022/07/31 03:24:26;;;;;;;14.30;12.80;;;;;;;20.74;100.00;96587.31;5088755;28;20080;-61
2022/07/31 03:26:53;;;;;;;15.35;13.65;;;;;;;21.20;100.00;96647.91;5088151;28;20056;-62
2022/07/31 03:29:20;;;;;;;15.43;13.15;;;;;;;21.29;100.00;96656.50;5088554;28;20105;-62
2022/07/31 03:32:06;;;;;;;14.30;12.35;;;;;;;21.42;100.00;96664.97;5088045;28;20101;-61
2022/07/31 03:34:33;;;;;;;14.15;11.45;;;;;;;21.25;100.00;96635.28;5088382;28;20492;-63
2022/07/31 03:37:00;;;;;;;13.15;11.32;;;;;;;21.35;100.00;96651.88;5087819;28;20063;-61
2022/07/31 03:39:27;;;;;;;14.27;11.52;;;;;;;21.04;100.00;96607.78;5087940;28;20364;-62
2022/07/31 03:41:56;;;;;;;13.50;11.25;;;;;;;21.50;100.00;96664.25;5088584;28;20062;-61
2022/07/31 03:44:24;;;;;;;11.98;10.88;;;;;;;21.63;100.00;96656.59;5088183;28;20117;-61
2022/07/31 03:46:52;;;;;;;17.23;13.07;;;;;;;21.28;100.00;96663.34;5087633;28;20060;-63
2022/07/31 03:49:20;;;;;;;15.77;13.32;;;;;;;20.62;100.00;96660.47;5088144;28;20792;-60
2022/07/31 03:51:47;;;;;;;21.48;15.80;;;;;;;20.60;100.00;96662.94;5087617;28;20052;-63
2022/07/31 03:54:13;;;;;;;14.32;12.65;;;;;;;20.42;100.00;96671.13;5088023;28;20048;-62
2022/07/31 03:56:43;;;;;;;15.20;12.98;;;;;;;20.41;100.00;96655.44;5087833;28;20048;-63
2022/07/31 03:59:12;;;;;;;13.68;12.25;;;;;;;20.84;100.00;96667.09;5087943;28;20054;-61
2022/07/31 04:01:40;;;;;;;14.43;11.27;;;;;;;20.68;100.00;96616.47;5087952;28;20063;-61
2022/07/31 04:04:24;;;;;;;14.63;11.55;;;;;;;21.01;100.00;96648.91;5087753;28;20100;-63
2022/07/31 04:06:51;;;;;;;13.75;11.25;;;;;;;21.13;100.00;96645.31;5087613;28;20113;-60
2022/07/31 04:09:19;;;;;;;13.50;11.50;;;;;;;21.02;100.00;96599.78;5087547;28;20128;-63
2022/07/31 04:11:45;;;;;;;16.17;12.35;;;;;;;21.43;100.00;96650.41;5087344;28;20048;-63
2022/07/31 04:14:12;;;;;;;13.93;12.27;;;;;;;21.14;100.00;96567.22;5086440;28;20485;-60
2022/07/31 04:16:39;;;;;;;13.82;12.05;;;;;;;21.73;100.00;96644.19;5087113;28;20052;-60
2022/07/31 04:19:05;;;;;;;15.95;12.07;;;;;;;21.89;100.00;96641.25;5087471;28;20055;-60
2022/07/31 04:21:32;;;;;;;16.17;11.88;;;;;;;22.02;100.00;96639.19;5087193;28;20435;-63
2022/07/31 04:24:00;;;;;;;10.48;9.48;;;;;;;22.11;100.00;96653.38;5085982;28;20059;-60
2022/07/31 04:26:28;;;;;;;11.13;9.85;;;;;;;22.00;100.00;96621.91;5086634;28;20063;-59
2022/07/31 04:28:54;;;;;;;12.95;10.35;;;;;;;22.28;100.00;96657.63;5085874;28;20068;-63
2022/07/31 04:31:22;;;;;;;11.27;10.05;;;;;;;22.31;100.00;96668.00;5087374;28;20116;-63
2022/07/31 04:33:49;;;;;;;11.90;10.10;;;;;;;22.30;100.00;96669.22;5087140;28;20407;-63
2022/07/31 04:36:22;;;;;;;10.80;9.65;;;;;;;22.28;99.67;96702.78;5086960;28;20066;-61
2022/07/31 04:38:57;;;;;;;12.00;10.75;;;;;;;22.48;99.14;96670.66;5087190;28;20063;-62
2022/07/31 04:41:24;;;;;;;13.82;9.60;;;;;;;21.98;98.82;96593.41;5086802;28;20052;-59
2022/07/31 04:43:51;;;;;;;10.48;9.13;;;;;;;22.44;98.32;96676.44;5087145;28;20051;-63
2022/07/31 04:46:18;;;;;;;12.32;9.50;;;;;;;22.46;98.69;96668.31;5086896;28;20083;-63
2022/07/31 04:48:44;;;;;;;11.07;9.27;;;;;;;22.42;98.30;96679.72;5086898;28;20056;-63
2022/07/31 04:51:18;;;;;;;11.48;9.90;;;;;;;22.38;97.15;96659.28;5086906;28;20486;-60
2022/07/31 04:53:46;;;;;;;14.00;9.85;;;;;;;22.42;96.87;96662.78;5086319;28;20530;-64
2022/07/31 04:58:59;;;;;;;13.27;10.25;;;;;;;22.72;95.24;96658.50;5087130;28;20052;-59
2022/07/31 05:01:26;;;;;;;12.38;9.73;;;;;;;22.57;99.83;96662.28;5084773;28;20052;-63
2022/07/31 05:03:53;;;;;;;11.23;9.95;;;;;;;22.81;95.40;96654.94;5085018;28;20062;-64
2022/07/31 05:06:19;;;;;;;15.70;9.43;;;;;;;23.02;93.25;96663.41;5086419;28;20052;-63
2022/07/31 05:08:46;;;;;;;12.68;9.02;;;;;;;22.67;96.39;96652.66;5084809;28;20055;-60
2022/07/31 05:11:22;;;;;;;10.52;9.40;;;;;;;22.95;93.63;96662.91;5086582;28;20055;-64
2022/07/31 05:13:54;;;;;;;11.23;8.90;;;;;;;23.11;92.81;96680.41;5086360;28;20067;-60
2022/07/31 05:16:22;;;;;;;12.77;8.95;;;;;;;23.31;89.67;96660.31;5086453;28;20415;-63
2022/07/31 05:18:50;;;;;;;10.07;9.05;;;;;;;23.44;88.88;96669.50;5086353;28;20056;-60
2022/07/31 05:21:17;;;;;;;10.23;9.23;;;;;;;23.45;90.47;96665.41;5086402;28;20048;-64
2022/07/31 05:23:46;;;;;;;12.27;9.32;;;;;;;23.69;89.41;96666.47;5086042;28;20059;-60
2022/07/31 05:26:14;;;;;;;9.07;8.10;;;;;;;23.69;88.24;96658.75;5085371;27;20503;-63
2022/07/31 05:28:42;;;;;;;12.13;8.75;;;;;;;23.97;86.22;96676.63;5085030;28;20048;-60
2022/07/31 05:31:12;;;;;;;11.13;8.68;;;;;;;24.07;85.50;96683.91;5086286;28;20501;-64
2022/07/31 05:33:38;;;;;;;9.65;8.35;;;;;;;24.11;85.60;96667.53;5086024;28;20245;-60
2022/07/31 05:36:06;;;;;;;11.45;8.13;;;;;;;24.00;85.61;96678.53;5085852;28;20075;-60
2022/07/31 05:38:32;;;;;;;13.48;8.38;;;;;;;23.70;84.74;96605.78;5085872;28;20060;-63
2022/07/31 05:40:59;;;;;;;10.65;7.93;;;;;;;24.17;82.54;96639.41;5084405;28;20078;-64
2022/07/31 05:43:26;;;;;;;8.57;7.72;;;;;;;23.94;83.16;96615.28;5084081;28;20051;-63
2022/07/31 05:45:53;;;;;;;8.63;7.75;;;;;;;24.32;83.52;96675.16;5085231;28;20056;-61
2022/07/31 05:48:21;;;;;;;8.43;7.35;;;;;;;24.10;81.08;96637.69;5083798;28;20052;-63
2022/07/31 05:50:49;;;;;;;9.07;7.97;;;;;;;24.48;82.08;96669.19;5085375;28;20052;-63
2022/07/31 05:53:17;;;;;;;8.38;6.90;;;;;;;24.66;80.06;96677.69;5083850;28;20522;-62
2022/07/31 05:55:46;;;;;;;7.85;7.05;;;;;;;24.81;78.61;96675.81;5085392;28;20575;-60
2022/07/31 05:58:14;;;;;;;10.85;7.22;;;;;;;24.96;77.97;96676.75;5083804;28;20052;-60
2022/07/31 06:00:46;;;;;;;8.25;7.53;;;;;;;24.90;79.08;96672.19;5085652;28;20052;-63
2022/07/31 06:03:13;;;;;;;8.88;8.00;;;;;;;24.73;77.64;96629.25;5085148;28;20063;-63
2022/07/31 06:05:40;;;;;;;9.27;7.68;;;;;;;25.08;77.58;96661.63;5085343;28;20132;-60
2022/07/31 06:08:08;;;;;;;11.65;7.53;;;;;;;25.03;76.55;96631.09;5085375;28;20059;-63
2022/07/31 06:10:38;;;;;;;7.25;6.55;;;;;;;25.18;74.12;96634.81;5085767;28;20055;-60
2022/07/31 06:13:05;;;;;;;8.00;6.90;;;;;;;25.52;74.11;96642.16;5085312;28;20560;-60
2022/07/31 06:15:32;;;;;;;8.23;7.43;;;;;;;25.04;73.31;96581.63;5085371;28;20052;-59
2022/07/31 06:18:03;;;;;;;10.52;7.45;;;;;;;25.28;74.09;96619.34;5084766;28;20051;-60
2022/07/31 06:20:30;;;;;;;8.70;7.18;;;;;;;25.66;73.20;96660.53;5084724;28;20052;-59
2022/07/31 06:22:57;;;;;;;9.52;7.85;;;;;;;25.69;71.89;96651.06;5084907;28;20044;-63
2022/07/31 06:25:24;;;;;;;9.25;8.35;;;;;;;25.48;72.59;96621.69;5084665;28;20434;-63
2022/07/31 06:27:55;;;;;;;8.45;7.65;;;;;;;25.80;72.34;96651.34;5084808;28;20087;-60
2022/07/31 06:30:26;;;;;;;9.15;8.25;;;;;;;25.48;70.66;96603.88;5084543;28;20058;-62
2022/07/31 06:32:53;;;;;;;9.30;7.70;;;;;;;25.69;71.92;96665.25;5084368;28;20156;-62
2022/07/31 06:35:20;;;;;;;8.50;7.70;;;;;;;25.90;70.41;96678.41;5084838;28;20051;-59
2022/07/31 06:37:47;;;;;;;8.05;7.35;;;;;;;26.05;70.53;96714.16;5084222;28;20184;-62
2022/07/31 06:40:13;;;;;;;7.53;6.93;;;;;;;25.89;68.30;96651.28;5083477;28;20059;-59
2022/07/31 06:42:40;;;;;;;6.43;5.82;;;;;;;26.07;66.71;96662.56;5084404;28;20044;-63
2022/07/31 06:45:07;;;;;;;7.90;7.20;;;;;;;25.89;68.09;96662.63;5084252;28;20052;-60
2022/07/31 06:47:34;;;;;;;7.38;6.68;;;;;;;26.10;69.73;96638.88;5084246;28;20453;-61
2022/07/31 06:50:02;;;;;;;9.18;7.53;;;;;;;26.63;68.16;96651.13;5084930;28;20063;-60
2022/07/31 06:52:29;;;;;;;8.63;7.70;;;;;;;26.69;66.39;96652.06;5084274;28;20070;-61
2022/07/31 06:54:55;;;;;;;6.65;6.00;;;;;;;26.80;62.82;96657.97;5083455;28;20513;-60
2022/07/31 06:57:22;;;;;;;7.18;6.47;;;;;;;27.11;62.52;96661.13;5084329;28;20048;-63
2022/07/31 06:59:49;;;;;;;7.05;6.32;;;;;;;27.24;62.58;96647.44;5083109;28;20052;-60
2022/07/31 07:02:16;;;;;;;6.50;5.90;;;;;;;27.41;58.66;96667.69;5082514;28;20517;-61
2022/07/31 07:04:42;;;;;;;7.03;6.32;;;;;;;27.36;58.30;96660.59;5084470;28;20060;-61
2022/07/31 07:07:29;;;;;;;7.88;7.18;;;;;;;27.13;58.01;96590.34;5084207;28;20056;-60
2022/07/31 07:09:57;;;;;;;7.90;6.55;;;;;;;27.52;59.27;96651.56;5084751;28;20056;-62
2022/07/31 07:12:24;;;;;;;6.95;6.13;;;;;;;27.75;58.53;96659.22;5084156;28;20071;-60
2022/07/31 07:14:53;;;;;;;6.45;5.95;;;;;;;27.53;55.90;96619.00;5084960;28;20463;-63
2022/07/31 07:17:19;;;;;;;7.93;7.13;;;;;;;27.55;57.64;96610.72;5084215;28;20083;-61
2022/07/31 07:19:51;;;;;;;7.18;6.57;;;;;;;27.98;55.98;96655.44;5082971;28;20056;-64
2022/07/31 07:22:21;;;;;;;7.70;7.00;;;;;;;28.17;57.02;96656.75;5083961;28;20136;-60
2022/07/31 07:24:59;;;;;;;7.50;5.80;;;;;;;27.73;56.13;96655.28;5083951;28;20097;-64
2022/07/31 07:27:25;;;;;;;7.28;6.68;;;;;;;27.68;55.66;96642.53;5083691;28;20048;-60
2022/07/31 07:29:52;;;;;;;6.95;6.30;;;;;;;27.81;56.72;96643.00;5084159;28;20537;-62
2022/07/31 07:32:19;;;;;;;7.13;6.43;;;;;;;27.77;55.07;96599.69;5083928;28;20138;-62
2022/07/31 07:34:45;;;;;;;7.75;6.78;;;;;;;28.17;54.36;96636.03;5083865;28;20069;-63
2022/07/31 07:37:12;;;;;;;11.30;7.13;;;;;;;28.25;53.97;96645.72;5083740;28;20048;-64
2022/07/31 07:39:39;;;;;;;9.50;7.40;;;;;;;28.06;51.52;96568.31;5083602;28;20052;-61
2022/07/31 07:42:05;;;;;;;8.05;7.32;;;;;;;28.59;52.52;96629.88;5084021;28;20040;-62
2022/07/31 07:44:32;;;;;;;6.97;6.38;;;;;;;28.86;51.54;96638.00;5083907;28;20092;-63
2022/07/31 07:46:59;;;;;;;6.97;6.38;;;;;;;28.93;49.45;96632.63;5083852;28;20079;-63
2022/07/31 07:49:26;;;;;;;7.85;7.15;;;;;;;28.45;50.59;96562.31;5085918;28;20053;-62
2022/07/31 07:51:52;;;;;;;7.40;6.75;;;;;;;28.88;50.56;96635.44;5087509;28;20151;-63
2022/07/31 07:54:26;;;;;;;8.30;7.60;;;;;;;29.09;50.04;96640.59;5087676;28;20064;-59
2022/07/31 07:56:53;;;;;;;6.97;6.40;;;;;;;29.05;49.92;96639.25;5087319;28;20502;-62
2022/07/31 07:59:20;;;;;;;7.90;7.15;;;;;;;28.88;49.03;96601.19;5087776;28;20048;-62
2022/07/31 08:01:47;;;;;;;8.18;7.45;;;;;;;29.15;49.82;96643.53;5085829;28;20064;-59
2022/07/31 08:04:14;;;;;;;6.68;6.18;;;;;;;29.19;49.54;96644.09;5087665;28;20059;-63
2022/07/31 08:06:41;;;;;;;7.47;6.68;;;;;;;29.06;49.74;96618.78;5087546;28;20063;-65
2022/07/31 08:09:08;;;;;;;7.13;6.53;;;;;;;29.24;49.30;96637.66;5088525;28;20062;-63
2022/07/31 08:11:34;;;;;;;7.95;7.25;;;;;;;29.38;49.47;96634.69;5087160;28;20048;-63
2022/07/31 08:14:01;;;;;;;7.65;6.70;;;;;;;29.70;49.28;96643.28;5085845;28;20044;-60
2022/07/31 08:16:28;;;;;;;8.07;7.03;;;;;;;29.10;49.69;96635.69;5087480;28;20459;-60
2022/07/31 08:18:55;;;;;;;7.60;6.90;;;;;;;29.18;47.77;96596.88;5064427;28;20139;-63
2022/07/31 08:21:21;;;;;;;9.63;7.00;;;;;;;28.73;50.13;96637.56;5087074;28;20109;-62
2022/07/31 08:23:49;;;;;;;7.43;6.78;;;;;;;29.04;48.84;96600.56;5085771;28;20052;-63
2022/07/31 08:26:17;;;;;;;7.70;6.93;;;;;;;29.77;48.60;96637.09;5087259;28;20059;-64
2022/07/31 08:28:44;;;;;;;7.82;6.95;;;;;;;29.78;47.34;96639.47;5086216;28;20048;-63
2022/07/31 08:31:17;;;;;;;7.32;6.72;;;;;;;29.34;48.09;96576.25;5087467;28;20135;-63
2022/07/31 08:33:44;;;;;;;7.57;6.70;;;;;;;29.72;47.21;96589.31;5085592;28;20051;-63
2022/07/31 08:36:11;;;;;;;10.02;9.13;;;;;;;30.22;47.89;96628.38;5085398;28;20093;-61
2022/07/31 08:38:38;;;;;;;7.40;6.80;;;;;;;30.54;45.91;96655.56;5086911;28;20048;-64
2022/07/31 08:41:05;;;;;;;7.07;6.38;;;;;;;30.73;45.98;96616.63;5086497;28;20052;-64
2022/07/31 08:43:32;;;;;;;7.50;6.88;;;;;;;30.64;45.74;96625.44;5086916;28;20113;-63
2022/07/31 08:46:20;;;;;;;8.07;7.38;;;;;;;29.92;46.60;96620.59;5086677;28;20071;-63
2022/07/31 08:48:53;;;;;;;7.47;6.88;;;;;;;29.12;47.88;96618.84;5086605;28;20439;-59
2022/07/31 08:51:21;;;;;;;7.80;7.10;;;;;;;29.50;48.11;96596.38;5086547;28;20195;-63
2022/07/31 08:53:52;;;;;;;6.95;6.32;;;;;;;30.00;47.78;96559.63;5085165;28;20054;-59
2022/07/31 08:56:21;;;;;;;6.97;6.28;;;;;;;29.82;47.92;96571.47;5086417;28;20533;-59
2022/07/31 08:58:48;;;;;;;8.20;7.40;;;;;;;30.51;46.84;96582.22;5086089;28;20396;-64
2022/07/31 09:01:14;;;;;;;5.35;4.95;;;;;;;31.28;45.66;96601.72;5086673;28;20052;-63
2022/07/31 09:03:42;;;;;;;6.40;5.90;;;;;;;29.82;48.13;96602.88;5086409;28;20050;-59
2022/07/31 09:06:09;;;;;;;8.38;7.20;;;;;;;29.18;48.62;96579.75;5086337;28;20058;-63
2022/07/31 09:08:37;;;;;;;7.78;6.97;;;;;;;30.04;48.08;96602.22;5086167;28;20051;-63
2022/07/31 09:11:08;;;;;;;8.82;7.85;;;;;;;30.56;46.22;96601.50;5086039;28;20052;-60
2022/07/31 09:13:35;;;;;;;7.85;7.18;;;;;;;30.85;45.21;96595.41;5086160;28;20062;-64
2022/07/31 09:16:03;;;;;;;7.38;6.82;;;;;;;31.23;44.49;96596.75;5085944;28;20094;-63
2022/07/31 09:18:30;;;;;;;7.90;7.13;;;;;;;31.76;43.56;96587.16;5086110;28;20545;-59
2022/07/31 09:21:02;;;;;;;8.32;7.63;;;;;;;31.43;44.40;96590.03;5086000;28;20066;-63
2022/07/31 09:23:30;;;;;;;7.83;7.13;;;;;;;30.82;43.96;96556.38;5085965;28;20052;-61
2022/07/31 09:26:00;;;;;;;7.80;7.05;;;;;;;31.51;44.19;96585.34;5085989;28;20048;-59
2022/07/31 09:28:39;;;;;;;8.45;7.15;;;;;;;31.16;44.24;96585.06;5085595;28;20143;-60
2022/07/31 09:31:07;;;;;;;7.82;7.22;;;;;;;31.74;43.11;96584.06;5085846;28;20055;-60
2022/07/31 09:33:37;;;;;;;8.07;6.53;;;;;;;31.35;43.19;96581.19;5085654;28;20063;-60
2022/07/31 09:36:11;;;;;;;7.68;6.97;;;;;;;31.22;43.23;96532.22;5084501;28;20052;-63
2022/07/31 09:38:40;;;;;;;6.15;5.68;;;;;;;31.59;43.89;96589.25;5085891;28;20059;-63
2022/07/31 09:41:09;;;;;;;5.50;5.10;;;;;;;31.10;44.04;96587.09;5085633;28;20055;-64
2022/07/31 09:44:01;;;;;;;6.28;5.68;;;;;;;29.95;47.10;96585.28;5086088;28;20048;-62
2022/07/31 09:46:44;;;;;;;6.25;5.65;;;;;;;30.00;48.31;96576.78;5085037;28;20070;-65
2022/07/31 09:49:11;;;;;;;8.98;7.32;;;;;;;29.10;50.75;96598.59;5085589;28;20052;-63
2022/07/31 09:51:44;;;;;;;7.13;6.53;;;;;;;29.43;51.22;96527.56;5085473;28;20104;-64
2022/07/31 09:54:22;;;;;;;7.25;6.57;;;;;;;30.10;50.44;96580.97;5085792;28;20671;-59
2022/07/31 09:56:49;;;;;;;7.78;7.18;;;;;;;30.02;50.08;96579.88;5085443;28;20507;-60
2022/07/31 09:59:16;;;;;;;7.65;6.95;;;;;;;29.10;51.82;96584.34;5085777;28;20139;-63
2022/07/31 10:01:47;;;;;;;7.60;6.95;;;;;;;29.58;51.87;96591.75;5085041;28;20052;-63
2022/07/31 10:04:18;;;;;;;8.25;7.13;;;;;;;29.73;51.53;96591.66;5085168;28;20064;-63
2022/07/31 10:06:47;;;;;;;6.35;5.85;;;;;;;30.12;48.84;96601.25;5085142;28;20060;-64
2022/07/31 10:09:17;;;;;;;7.95;6.20;;;;;;;29.64;49.24;96597.53;5085326;28;20055;-60
2022/07/31 10:11:46;;;;;;;6.75;6.18;;;;;;;29.27;49.27;96548.19;5083924;28;20131;-59
2022/07/31 10:14:21;;;;;;;5.90;5.32;;;;;;;29.50;48.95;96589.88;5085447;28;20083;-64
2022/07/31 10:16:53;;;;;;;11.07;6.70;;;;;;;29.96;48.90;96592.56;5085123;28;20086;-63
2022/07/31 10:19:22;;;;;;;6.20;5.70;;;;;;;30.22;47.16;96576.91;5083730;28;20055;-59
2022/07/31 10:21:56;;;;;;;5.72;5.32;;;;;;;30.23;47.75;96572.75;5084655;28;20130;-60
2022/07/31 10:24:27;;;;;;;5.53;5.13;;;;;;;30.37;47.60;96571.78;5084606;28;20052;-60
2022/07/31 10:26:58;;;;;;;5.55;5.10;;;;;;;29.58;49.67;96562.44;5084553;28;20518;-64
2022/07/31 10:29:39;;;;;;;5.10;4.68;;;;;;;29.77;48.89;96586.47;5083535;28;20562;-60
2022/07/31 10:32:07;;;;;;;5.28;4.85;;;;;;;28.77;51.31;96573.34;5084569;28;20058;-63
2022/07/31 10:34:35;;;;;;;5.82;5.35;;;;;;;28.15;51.96;96539.69;5084473;28;20051;-59
2022/07/31 10:37:10;;;;;;;5.97;5.38;;;;;;;28.70;52.68;96578.69;5083005;28;20052;-62
2022/07/31 10:40:00;;;;;;;6.32;5.72;;;;;;;28.29;54.29;96574.28;5084948;28;20058;-62
2022/07/31 10:42:41;;;;;;;6.32;5.70;;;;;;;28.46;53.41;96578.13;5084582;28;20055;-63
2022/07/31 10:45:12;;;;;;;5.88;5.38;;;;;;;28.62;53.35;96577.56;5084608;28;20086;-59
2022/07/31 10:47:40;;;;;;;6.68;5.88;;;;;;;28.14;54.33;96521.03;5084340;28;20261;-63
2022/07/31 10:50:22;;;;;;;5.95;5.43;;;;;;;28.77;52.67;96532.66;5084274;28;20124;-62
2022/07/31 10:52:50;;;;;;;6.90;6.20;;;;;;;29.55;52.21;96557.72;5083266;28;20076;-60
2022/07/31 10:55:24;;;;;;;7.00;6.40;;;;;;;29.11;52.11;96563.06;5084587;28;20063;-63
2022/07/31 10:57:50;;;;;;;7.20;6.60;;;;;;;28.96;51.56;96568.09;5084681;28;20438;-61
2022/07/31 11:00:25;;;;;;;6.78;6.15;;;;;;;29.35;49.60;96566.41;5083232;28;20135;-59
2022/07/31 11:02:55;;;;;;;6.60;6.00;;;;;;;28.24;50.94;96513.13;5084730;28;20077;-64
2022/07/31 11:05:22;;;;;;;7.05;6.43;;;;;;;28.77;51.14;96555.47;5084240;28;20095;-61
2022/07/31 11:08:03;;;;;;;8.05;6.57;;;;;;;28.64;49.77;96512.28;5084102;28;20151;-62
2022/07/31 11:10:32;;;;;;;7.07;6.57;;;;;;;29.48;49.86;96549.66;5083198;28;20052;-60
2022/07/31 11:13:07;;;;;;;7.38;6.75;;;;;;;29.41;49.19;96558.66;5084249;28;20044;-61
2022/07/31 11:15:36;;;;;;;6.85;6.28;;;;;;;29.51;47.84;96537.97;5084641;28;20048;-59
2022/07/31 11:18:18;;;;;;;7.30;6.57;;;;;;;28.84;48.99;96532.19;5084302;28;20056;-65
2022/07/31 11:21:06;;;;;;;7.13;6.53;;;;;;;29.25;48.33;96551.53;5084468;28;20522;-65
2022/07/31 11:23:54;;;;;;;7.45;6.75;;;;;;;29.33;47.61;96483.34;5088157;28;20458;-58
2022/07/31 11:26:29;;;;;;;6.55;6.05;;;;;;;30.00;46.07;96536.78;5088352;28;20492;-64
2022/07/31 11:29:07;;;;;;;8.60;6.03;;;;;;;30.28;45.25;96540.56;5088517;28;20052;-59
2022/07/31 11:31:54;;;;;;;6.20;5.70;;;;;;;30.29;45.57;96489.88;5087947;28;20113;-58
2022/07/31 11:34:21;;;;;;;10.68;6.18;;;;;;;30.77;43.51;96542.84;5086518;28;20055;-58
2022/07/31 11:36:48;;;;;;;6.20;5.70;;;;;;;30.40;43.87;96542.16;5087987;28;20068;-58
2022/07/31 11:39:17;;;;;;;13.88;9.30;;;;;;;31.00;43.45;96543.63;5086605;28;20519;-59